Time;durP1;ratioP1;P1;durP2;ratioP2;P2;SDS_P1;SDS_P2;PMS_P1;PMS_P2;Temp;Humidity;BMP_temperature;BMP_pressure;BME280_temperature;BME280_humidity;BME280_pressure;Samples;Min_cycle;Max_cycle;Signal;HPM_P1;HPM_P2
2023/01/14 00:00:53;;;;;;;0.00;0.00;;;7.80;88.30;;;;;;5000038;28;20140;-74
2023/01/14 00:03:18;;;;;;;0.10;0.10;;;7.80;88.10;;;;;;5004207;28;20137;-74
2023/01/14 00:05:57;;;;;;;0.47;0.47;;;7.70;87.90;;;;;;5020622;28;20053;-74
2023/01/14 00:08:23;;;;;;;1.15;1.08;;;7.70;87.70;;;;;;5023604;28;20045;-75
2023/01/14 00:10:49;;;;;;;0.00;0.00;;;7.60;87.80;;;;;;4999829;28;20054;-74
2023/01/14 00:13:14;;;;;;;0.00;0.00;;;7.60;87.80;;;;;;4986179;28;20060;-74
2023/01/14 00:15:52;;;;;;;0.00;0.00;;;7.60;87.70;;;;;;5019731;28;20603;-74
2023/01/14 00:18:18;;;;;;;0.10;0.10;;;7.60;87.70;;;;;;5019929;28;20120;-74
2023/01/14 00:20:43;;;;;;;0.00;0.00;;;7.60;87.70;;;;;;5018137;28;20490;-74
2023/01/14 00:23:09;;;;;;;0.00;0.00;;;7.60;87.70;;;;;;5019494;28;20045;-74
2023/01/14 00:25:34;;;;;;;0.15;0.15;;;7.60;87.60;;;;;;5005697;28;20127;-74
2023/01/14 00:28:00;;;;;;;0.00;0.00;;;7.70;87.60;;;;;;5015840;28;20044;-74
2023/01/14 00:30:26;;;;;;;0.00;0.00;;;7.80;87.50;;;;;;5017031;28;20461;-74
2023/01/14 00:32:51;;;;;;;11.80;3.85;;;7.80;87.30;;;;;;5019672;28;20048;-75
2023/01/14 00:35:17;;;;;;;24.38;1.98;;;7.70;87.10;;;;;;5001579;28;20045;-74
2023/01/14 00:37:42;;;;;;;0.22;0.22;;;7.70;87.10;;;;;;5019069;28;20161;-74
2023/01/14 00:40:08;;;;;;;0.00;0.00;;;7.70;87.20;;;;;;4994716;28;20046;-74
2023/01/14 00:42:34;;;;;;;0.00;0.00;;;7.70;87.00;;;;;;5009351;28;20074;-74
2023/01/14 00:44:59;;;;;;;1.60;1.27;;;7.70;87.10;;;;;;4999039;28;20048;-74
2023/01/14 00:47:25;;;;;;;0.00;0.00;;;7.70;87.20;;;;;;5009163;28;20056;-74
2023/01/14 00:49:51;;;;;;;0.00;0.00;;;7.70;87.10;;;;;;5000653;28;20095;-74
2023/01/14 00:52:16;;;;;;;0.00;0.00;;;7.70;87.00;;;;;;5009528;28;20410;-74
2023/01/14 00:54:42;;;;;;;0.00;0.00;;;7.70;86.80;;;;;;5009555;28;20061;-74
2023/01/14 00:57:07;;;;;;;0.00;0.00;;;7.70;86.70;;;;;;5000501;28;20100;-74
2023/01/14 00:59:33;;;;;;;0.20;0.20;;;7.80;86.30;;;;;;4999402;28;20049;-74
2023/01/14 01:02:01;;;;;;;3.00;1.40;;;7.80;86.20;;;;;;5005118;28;20658;-74
2023/01/14 01:04:26;;;;;;;0.15;0.15;;;7.70;86.30;;;;;;4999087;28;20104;-74
2023/01/14 01:06:52;;;;;;;2.55;1.65;;;7.80;86.40;;;;;;4999305;28;20065;-74
2023/01/14 01:09:18;;;;;;;0.00;0.00;;;7.70;86.30;;;;;;4991703;28;20072;-74
2023/01/14 01:11:44;;;;;;;0.00;0.00;;;7.70;86.20;;;;;;4997818;28;20459;-74
2023/01/14 01:14:09;;;;;;;0.10;0.10;;;7.70;86.20;;;;;;5009024;28;20053;-74
2023/01/14 01:16:35;;;;;;;10.88;1.92;;;7.70;86.20;;;;;;5008300;28;20129;-74
2023/01/14 01:19:00;;;;;;;2.25;2.10;;;7.80;86.20;;;;;;5009753;28;20760;-75
2023/01/14 01:21:26;;;;;;;0.00;0.00;;;7.80;86.00;;;;;;5005206;28;20131;-74
2023/01/14 01:23:53;;;;;;;0.00;0.00;;;7.80;86.10;;;;;;5010116;28;20070;-75
2023/01/14 01:26:21;;;;;;;0.68;0.68;;;7.80;86.20;;;;;;5008773;28;20052;-74
2023/01/14 01:28:49;;;;;;;0.00;0.00;;;7.80;86.20;;;;;;5004240;28;20403;-74
2023/01/14 01:31:14;;;;;;;0.10;0.10;;;7.80;86.40;;;;;;5005780;28;20096;-75
2023/01/14 01:33:41;;;;;;;0.10;0.10;;;7.70;86.40;;;;;;5008510;28;20046;-75
2023/01/14 01:36:11;;;;;;;0.60;0.60;;;7.80;86.50;;;;;;5008649;28;20045;-75
2023/01/14 01:38:37;;;;;;;0.10;0.10;;;7.80;86.50;;;;;;4996852;28;20050;-75
2023/01/14 01:41:02;;;;;;;1.48;1.38;;;7.70;86.40;;;;;;5009490;28;20050;-74
2023/01/14 01:43:30;;;;;;;0.43;0.43;;;7.80;86.40;;;;;;5008587;28;20065;-74
2023/01/14 01:45:56;;;;;;;0.08;0.08;;;7.80;86.20;;;;;;5008356;28;20050;-74
2023/01/14 01:48:26;;;;;;;0.00;0.00;;;7.80;86.20;;;;;;4997074;28;20053;-74
2023/01/14 01:50:58;;;;;;;0.00;0.00;;;7.70;85.90;;;;;;5008698;28;20092;-75
2023/01/14 01:53:25;;;;;;;0.00;0.00;;;7.70;85.90;;;;;;5008486;28;20052;-75
2023/01/14 01:55:53;;;;;;;0.00;0.00;;;7.70;85.70;;;;;;5007677;28;20038;-75
2023/01/14 01:58:21;;;;;;;0.00;0.00;;;7.70;85.90;;;;;;5008115;28;20049;-75
2023/01/14 02:00:47;;;;;;;0.10;0.10;;;7.70;85.90;;;;;;5009824;28;20046;-74
2023/01/14 02:03:22;;;;;;;0.90;0.80;;;7.70;85.80;;;;;;4983964;28;20056;-75
2023/01/14 02:05:49;;;;;;;0.00;0.00;;;7.70;85.90;;;;;;5007856;28;20461;-75
2023/01/14 02:08:15;;;;;;;0.00;0.00;;;7.70;85.90;;;;;;4997649;28;20447;-75
2023/01/14 02:10:53;;;;;;;0.00;0.00;;;7.70;85.80;;;;;;5008268;28;20034;-75
2023/01/14 02:13:51;;;;;;;0.00;0.00;;;7.70;85.40;;;;;;5005895;28;20066;-75
2023/01/14 02:16:26;;;;;;;0.00;0.00;;;7.60;85.50;;;;;;4992195;28;20056;-75
2023/01/14 02:19:13;;;;;;;0.00;0.00;;;7.70;85.70;;;;;;5028918;28;20053;-75
2023/01/14 02:22:08;;;;;;;0.00;0.00;;;7.60;85.70;;;;;;5017668;28;20092;-75
2023/01/14 02:25:11;;;;;;;1.75;1.65;;;7.60;85.90;;;;;;4991137;28;20128;-75
2023/01/14 02:28:05;;;;;;;0.00;0.00;;;7.50;86.30;;;;;;5009998;28;20046;-75
2023/01/14 02:30:47;;;;;;;1.27;1.27;;;7.40;86.40;;;;;;5011882;28;20188;-75
2023/01/14 02:33:27;;;;;;;0.10;0.10;;;7.40;86.70;;;;;;4993540;28;20054;-75
2023/01/14 02:36:08;;;;;;;0.00;0.00;;;7.40;86.80;;;;;;4997331;28;20053;-75
2023/01/14 02:39:12;;;;;;;0.00;0.00;;;7.40;86.80;;;;;;5011811;28;20045;-75
2023/01/14 02:44:38;;;;;;;0.00;0.00;;;7.40;86.90;;;;;;5015080;28;20053;-74
2023/01/14 02:47:15;;;;;;;0.00;0.00;;;7.30;86.70;;;;;;5013158;28;20128;-74
2023/01/14 02:49:44;;;;;;;0.00;0.00;;;7.30;86.80;;;;;;4996491;28;20046;-74
2023/01/14 02:52:11;;;;;;;0.93;0.43;;;7.30;86.60;;;;;;5015299;28;20053;-75
2023/01/14 02:54:37;;;;;;;0.00;0.00;;;7.30;86.60;;;;;;5019609;28;20064;-74
2023/01/14 02:57:07;;;;;;;0.00;0.00;;;7.20;86.50;;;;;;5005272;28;20045;-74
2023/01/14 02:59:35;;;;;;;0.00;0.00;;;7.20;86.60;;;;;;5006775;28;20061;-74
2023/01/14 03:02:17;;;;;;;0.00;0.00;;;7.20;86.60;;;;;;5010704;28;20060;-74
2023/01/14 03:04:55;;;;;;;0.55;0.55;;;7.10;86.70;;;;;;5012802;28;20052;-74
2023/01/14 03:07:50;;;;;;;0.08;0.08;;;7.10;86.80;;;;;;5007812;28;20060;-74
2023/01/14 03:10:39;;;;;;;0.45;0.40;;;7.10;86.90;;;;;;5021819;28;20057;-74
2023/01/14 03:13:37;;;;;;;3.40;1.85;;;7.00;87.00;;;;;;5011897;28;20050;-75
2023/01/14 03:16:24;;;;;;;0.00;0.00;;;6.90;87.10;;;;;;5012526;28;20763;-74
2023/01/14 03:19:06;;;;;;;0.00;0.00;;;6.90;87.20;;;;;;5011014;28;20147;-74
2023/01/14 03:21:36;;;;;;;0.00;0.00;;;6.90;87.40;;;;;;5009825;28;20129;-74
2023/01/14 03:24:11;;;;;;;0.00;0.00;;;6.80;87.40;;;;;;5011178;28;20050;-75
2023/01/14 03:26:39;;;;;;;0.00;0.00;;;6.90;87.50;;;;;;5009982;28;20084;-74
2023/01/14 03:29:12;;;;;;;4.68;2.97;;;6.80;87.50;;;;;;5011622;28;20081;-74
2023/01/14 03:31:43;;;;;;;0.00;0.00;;;6.70;87.60;;;;;;5011792;28;20041;-74
2023/01/14 03:34:15;;;;;;;0.00;0.00;;;6.70;87.70;;;;;;4994334;28;20057;-74
2023/01/14 03:36:44;;;;;;;0.00;0.00;;;6.70;87.70;;;;;;4979907;28;20120;-74
2023/01/14 03:39:18;;;;;;;0.00;0.00;;;6.70;87.70;;;;;;5011291;28;20085;-74
2023/01/14 03:44:57;;;;;;;0.00;0.00;;;6.60;87.80;;;;;;5011830;28;20046;-74
2023/01/14 03:47:26;;;;;;;0.20;0.20;;;6.70;87.80;;;;;;4988005;28;20509;-74
2023/01/14 03:49:52;;;;;;;0.00;0.00;;;6.70;87.90;;;;;;5015589;28;20494;-74
2023/01/14 03:52:39;;;;;;;0.00;0.00;;;6.60;87.90;;;;;;4996051;28;20056;-74
2023/01/14 03:55:15;;;;;;;0.00;0.00;;;6.60;87.90;;;;;;5012698;28;20195;-74
2023/01/14 03:58:17;;;;;;;0.10;0.10;;;6.60;87.90;;;;;;4993328;28;20499;-74
2023/01/14 04:00:49;;;;;;;0.00;0.00;;;6.60;88.00;;;;;;5013164;28;20046;-74
2023/01/14 04:03:16;;;;;;;0.00;0.00;;;6.60;88.00;;;;;;5020388;28;20285;-74
2023/01/14 04:05:42;;;;;;;0.00;0.00;;;6.60;88.10;;;;;;5011747;28;20632;-74
2023/01/14 04:08:08;;;;;;;0.00;0.00;;;6.60;88.10;;;;;;5000858;28;20050;-74
2023/01/14 04:10:34;;;;;;;0.00;0.00;;;6.50;88.20;;;;;;5010267;28;20181;-74
2023/01/14 04:15:44;;;;;;;0.00;0.00;;;6.60;88.30;;;;;;5017490;28;20431;-74
2023/01/14 04:18:10;;;;;;;0.00;0.00;;;6.60;88.50;;;;;;5010465;28;20061;-75
2023/01/14 04:20:35;;;;;;;0.00;0.00;;;6.60;88.50;;;;;;5020637;28;20049;-75
2023/01/14 04:23:01;;;;;;;0.00;0.00;;;6.60;88.60;;;;;;5009839;28;20044;-74
2023/01/14 04:25:28;;;;;;;0.00;0.00;;;6.60;88.80;;;;;;4995136;28;20081;-74
2023/01/14 04:27:53;;;;;;;0.45;0.45;;;6.60;88.80;;;;;;5011141;28;20399;-74
2023/01/14 04:30:19;;;;;;;0.10;0.10;;;6.60;88.90;;;;;;5011048;28;20041;-74
2023/01/14 04:32:45;;;;;;;0.20;0.20;;;6.60;89.00;;;;;;5011068;28;20502;-74
2023/01/14 04:35:11;;;;;;;0.00;0.00;;;6.60;89.10;;;;;;5014071;28;20072;-74
2023/01/14 04:37:37;;;;;;;0.00;0.00;;;6.60;89.20;;;;;;5017795;28;20050;-75
2023/01/14 04:40:03;;;;;;;0.00;0.00;;;6.60;89.30;;;;;;4993630;28;20046;-74
2023/01/14 04:42:30;;;;;;;0.00;0.00;;;6.60;89.30;;;;;;5013554;28;20041;-74
2023/01/14 04:44:58;;;;;;;0.00;0.00;;;6.60;89.30;;;;;;5016570;28;20084;-74
2023/01/14 04:47:24;;;;;;;1.30;1.20;;;6.60;89.30;;;;;;5010831;28;20085;-75
2023/01/14 04:49:50;;;;;;;0.00;0.00;;;6.60;89.30;;;;;;5014268;28;20405;-74
2023/01/14 04:52:16;;;;;;;0.00;0.00;;;6.60;89.30;;;;;;5010666;28;20133;-74
2023/01/14 04:54:42;;;;;;;0.00;0.00;;;6.60;89.30;;;;;;5007464;28;20045;-74
2023/01/14 04:57:08;;;;;;;0.00;0.00;;;6.60;89.20;;;;;;5013066;28;20053;-74
2023/01/14 04:59:34;;;;;;;0.00;0.00;;;6.50;89.20;;;;;;5026906;28;20061;-75
2023/01/14 05:01:59;;;;;;;0.08;0.08;;;6.50;89.10;;;;;;5011453;28;20050;-74
2023/01/14 05:04:26;;;;;;;0.00;0.00;;;6.40;89.20;;;;;;5009796;28;20073;-74
2023/01/14 05:06:52;;;;;;;0.00;0.00;;;6.50;89.30;;;;;;4997737;28;20081;-74
2023/01/14 05:09:18;;;;;;;0.28;0.28;;;6.50;89.40;;;;;;4993455;28;20092;-74
2023/01/14 05:11:43;;;;;;;0.03;0.03;;;6.40;89.40;;;;;;5007013;28;20046;-74
2023/01/14 05:14:09;;;;;;;0.10;0.10;;;6.50;89.50;;;;;;5009870;28;20100;-75
2023/01/14 05:16:35;;;;;;;1.55;1.45;;;6.50;89.50;;;;;;5012800;28;20048;-74
2023/01/14 05:19:00;;;;;;;0.00;0.00;;;6.40;89.50;;;;;;4994047;28;20453;-75
2023/01/14 05:21:26;;;;;;;0.00;0.00;;;6.40;89.50;;;;;;5002574;28;20053;-74
2023/01/14 05:23:52;;;;;;;0.05;0.05;;;6.40;89.50;;;;;;5020347;28;20069;-75
2023/01/14 05:26:17;;;;;;;1.48;1.30;;;6.50;89.50;;;;;;5010704;28;20524;-74
2023/01/14 05:28:43;;;;;;;0.00;0.00;;;6.40;89.50;;;;;;5010691;28;20046;-74
2023/01/14 05:31:08;;;;;;;0.00;0.00;;;6.40;89.70;;;;;;4979102;28;20505;-74
2023/01/14 05:33:34;;;;;;;0.00;0.00;;;6.40;89.80;;;;;;5010160;28;20056;-74
2023/01/14 05:36:01;;;;;;;0.00;0.00;;;6.30;89.90;;;;;;5013622;28;20057;-74
2023/01/14 05:38:27;;;;;;;0.00;0.00;;;6.30;90.00;;;;;;5010836;28;20053;-74
2023/01/14 05:40:53;;;;;;;0.00;0.00;;;6.30;89.90;;;;;;5022188;28;20460;-74
2023/01/14 05:46:06;;;;;;;6.50;2.13;;;6.30;90.00;;;;;;5010510;28;20054;-74
2023/01/14 05:48:32;;;;;;;0.00;0.00;;;6.30;90.10;;;;;;5010350;28;20050;-75
2023/01/14 05:50:59;;;;;;;0.00;0.00;;;6.20;90.10;;;;;;5010298;28;20069;-74
2023/01/14 05:53:27;;;;;;;0.00;0.00;;;6.20;90.40;;;;;;4994711;28;20045;-74
2023/01/14 05:55:53;;;;;;;0.00;0.00;;;6.30;90.30;;;;;;5024769;28;20042;-74
2023/01/14 05:58:19;;;;;;;0.00;0.00;;;6.30;90.40;;;;;;5010521;28;20042;-74
2023/01/14 06:06:26;;;;;;;0.00;0.00;;;6.40;90.20;;;;;;5005028;28;20081;-74
2023/01/14 06:08:55;;;;;;;0.00;0.00;;;6.40;90.20;;;;;;5008887;28;20095;-75
2023/01/14 06:11:21;;;;;;;0.00;0.00;;;6.40;90.30;;;;;;5000329;28;20050;-74
2023/01/14 06:13:48;;;;;;;0.00;0.00;;;6.30;90.50;;;;;;5035199;28;20056;-74
2023/01/14 06:16:14;;;;;;;0.10;0.10;;;6.30;90.40;;;;;;5025558;28;20050;-74
2023/01/14 06:18:43;;;;;;;0.00;0.00;;;6.20;90.50;;;;;;5017105;28;20129;-75
2023/01/14 06:21:14;;;;;;;0.00;0.00;;;6.30;90.60;;;;;;5016223;28;20494;-74
2023/01/14 06:23:40;;;;;;;0.00;0.00;;;6.30;90.50;;;;;;5018526;28;20120;-74
2023/01/14 06:26:11;;;;;;;0.00;0.00;;;6.30;90.40;;;;;;5000062;28;20149;-75
2023/01/14 06:28:37;;;;;;;0.00;0.00;;;6.30;90.40;;;;;;5001834;28;20041;-75
2023/01/14 06:31:17;;;;;;;0.10;0.10;;;6.20;90.50;;;;;;5000805;28;20127;-75
2023/01/14 06:33:44;;;;;;;0.10;0.10;;;6.20;90.70;;;;;;5011415;28;20061;-75
2023/01/14 06:36:11;;;;;;;0.00;0.00;;;6.20;90.70;;;;;;5010235;28;20073;-75
2023/01/14 06:38:37;;;;;;;0.32;0.32;;;6.30;90.60;;;;;;5001305;28;20107;-75
2023/01/14 06:41:05;;;;;;;0.00;0.00;;;6.30;90.70;;;;;;5015943;28;20060;-75
2023/01/14 06:43:31;;;;;;;0.00;0.00;;;6.30;90.60;;;;;;5015106;28;20402;-75
2023/01/14 06:45:57;;;;;;;0.00;0.00;;;6.30;90.60;;;;;;5035909;28;20041;-74
2023/01/14 06:48:24;;;;;;;6.30;2.15;;;6.30;90.60;;;;;;4988695;28;20037;-75
2023/01/14 06:50:51;;;;;;;0.00;0.00;;;6.30;90.60;;;;;;5014827;28;20057;-75
2023/01/14 06:53:16;;;;;;;0.13;0.13;;;6.20;90.60;;;;;;5016820;28;20099;-75
2023/01/14 06:55:42;;;;;;;0.00;0.00;;;6.30;90.70;;;;;;5007970;28;20046;-76
2023/01/14 06:58:08;;;;;;;0.00;0.00;;;6.30;90.80;;;;;;5016585;28;20116;-74
2023/01/14 07:00:34;;;;;;;0.08;0.08;;;6.30;90.80;;;;;;5031288;28;20104;-75
2023/01/14 07:02:59;;;;;;;0.00;0.00;;;6.30;90.70;;;;;;5013145;28;20049;-75
2023/01/14 07:05:25;;;;;;;0.00;0.00;;;6.30;90.90;;;;;;5000501;28;20042;-75
2023/01/14 07:07:50;;;;;;;0.00;0.00;;;6.30;90.90;;;;;;5004081;28;20131;-75
2023/01/14 07:10:17;;;;;;;0.00;0.00;;;6.30;91.00;;;;;;5000477;28;20617;-75
2023/01/14 07:12:47;;;;;;;0.00;0.00;;;6.30;91.10;;;;;;5011953;28;20165;-75
2023/01/14 07:15:15;;;;;;;0.00;0.00;;;6.40;91.00;;;;;;4992119;28;20089;-75
2023/01/14 07:17:40;;;;;;;0.00;0.00;;;6.30;91.10;;;;;;5003653;28;20065;-75
2023/01/14 07:20:08;;;;;;;0.00;0.00;;;6.30;91.10;;;;;;5016665;28;20421;-76
2023/01/14 07:22:33;;;;;;;0.05;0.05;;;6.40;91.20;;;;;;4996514;28;20140;-75
2023/01/14 07:25:01;;;;;;;0.10;0.10;;;6.40;91.30;;;;;;5009817;28;20120;-75
2023/01/14 07:27:27;;;;;;;2.38;1.17;;;6.40;91.30;;;;;;4991884;28;20469;-74
2023/01/14 07:29:53;;;;;;;0.00;0.00;;;6.40;91.30;;;;;;5013700;28;20041;-73
2023/01/14 07:32:18;;;;;;;0.00;0.00;;;6.40;91.30;;;;;;5002839;28;20128;-73
2023/01/14 07:34:44;;;;;;;0.00;0.00;;;6.40;91.40;;;;;;5022303;28;20568;-74
2023/01/14 07:37:09;;;;;;;0.17;0.17;;;6.40;91.50;;;;;;5010649;28;20049;-73
2023/01/14 07:39:35;;;;;;;0.00;0.00;;;6.50;91.50;;;;;;5011770;28;20049;-71
2023/01/14 07:42:00;;;;;;;0.00;0.00;;;6.50;91.50;;;;;;4982391;28;20042;-70
2023/01/14 07:44:26;;;;;;;0.00;0.00;;;6.50;91.50;;;;;;5011419;28;20058;-73
2023/01/14 07:46:53;;;;;;;0.00;0.00;;;6.60;91.50;;;;;;4994134;28;20069;-73
2023/01/14 07:49:19;;;;;;;0.00;0.00;;;6.50;91.30;;;;;;4992876;28;20066;-73
2023/01/14 07:51:45;;;;;;;0.00;0.00;;;6.60;91.40;;;;;;5010687;28;20177;-73
2023/01/14 07:54:10;;;;;;;0.45;0.45;;;6.60;91.50;;;;;;4995255;28;20085;-74
2023/01/14 07:56:36;;;;;;;0.10;0.10;;;6.50;91.50;;;;;;4995259;28;20100;-69
2023/01/14 07:59:01;;;;;;;0.00;0.00;;;6.50;91.70;;;;;;5005238;28;20157;-70
2023/01/14 08:01:27;;;;;;;0.00;0.00;;;6.60;91.60;;;;;;5009213;28;20060;-70
2023/01/14 08:03:53;;;;;;;0.10;0.10;;;6.60;91.50;;;;;;5009729;28;20049;-70
2023/01/14 08:06:18;;;;;;;0.13;0.13;;;6.50;91.60;;;;;;5010643;28;20050;-70
2023/01/14 08:08:44;;;;;;;0.43;0.43;;;6.60;91.70;;;;;;5010156;28;20057;-71
2023/01/14 08:11:09;;;;;;;0.00;0.00;;;6.50;91.80;;;;;;5010315;28;20446;-70
2023/01/14 08:13:35;;;;;;;0.00;0.00;;;6.50;92.00;;;;;;4996991;28;20057;-70
2023/01/14 08:16:02;;;;;;;0.00;0.00;;;6.50;92.10;;;;;;5010189;28;20042;-70
2023/01/14 08:18:29;;;;;;;1.73;1.45;;;6.50;92.10;;;;;;5009484;28;20779;-70
2023/01/14 08:21:00;;;;;;;4.70;1.85;;;6.60;92.20;;;;;;5024191;28;20549;-71
2023/01/14 08:23:25;;;;;;;1.17;1.13;;;6.50;92.10;;;;;;5008354;28;20502;-70
2023/01/14 08:25:51;;;;;;;0.00;0.00;;;6.50;92.10;;;;;;5009445;28;20085;-71
2023/01/14 08:28:17;;;;;;;0.00;0.00;;;6.50;92.20;;;;;;5008798;28;20061;-71
2023/01/14 08:30:42;;;;;;;0.00;0.00;;;6.50;92.30;;;;;;5014485;28;20080;-70
2023/01/14 08:33:08;;;;;;;0.00;0.00;;;6.50;92.40;;;;;;5008760;28;20766;-70
2023/01/14 08:35:38;;;;;;;0.00;0.00;;;6.50;92.50;;;;;;5008533;28;20050;-70
2023/01/14 08:38:04;;;;;;;0.00;0.00;;;6.40;92.60;;;;;;5009238;28;20168;-70
2023/01/14 08:40:30;;;;;;;0.00;0.00;;;6.50;92.70;;;;;;5008311;28;20125;-70
2023/01/14 08:42:55;;;;;;;0.00;0.00;;;6.50;92.70;;;;;;5009018;28;20170;-70
2023/01/14 08:45:21;;;;;;;0.00;0.00;;;6.50;92.70;;;;;;5008780;28;20069;-70
2023/01/14 08:47:46;;;;;;;0.95;0.95;;;7.00;95.60;;;;;;5008149;28;20146;-70
2023/01/14 08:50:12;;;;;;;0.05;0.05;;;7.50;94.90;;;;;;4992120;28;20042;-70
2023/01/14 08:52:37;;;;;;;0.38;0.38;;;7.70;93.80;;;;;;5006444;28;20050;-70
2023/01/14 08:55:03;;;;;;;0.00;0.00;;;7.80;93.00;;;;;;5001384;28;20089;-70
2023/01/14 08:57:29;;;;;;;0.00;0.00;;;8.00;92.50;;;;;;5008233;28;20058;-70
2023/01/14 08:59:54;;;;;;;0.00;0.00;;;8.10;90.80;;;;;;4975127;28;20057;-60
2023/01/14 09:02:20;;;;;;;0.00;0.00;;;8.50;92.60;;;;;;5009864;28;20049;-72
2023/01/14 09:04:46;;;;;;;0.00;0.00;;;8.20;89.10;;;;;;4999245;28;20046;-72
2023/01/14 09:18:08;;;;;;;0.00;0.00;;;7.10;90.00;;;;;;5005422;28;20419;-70
2023/01/14 09:20:38;;;;;;;0.00;0.00;;;6.90;90.80;;;;;;5008894;28;20056;-70
2023/01/14 09:23:06;;;;;;;0.00;0.00;;;6.90;91.10;;;;;;5007852;28;20141;-72
2023/01/14 09:25:32;;;;;;;0.05;0.05;;;6.90;92.10;;;;;;5008801;28;20856;-70
2023/01/14 09:27:57;;;;;;;0.03;0.03;;;6.80;91.90;;;;;;4990814;28;20082;-71
2023/01/14 09:30:23;;;;;;;0.65;0.65;;;6.80;91.90;;;;;;4995102;28;20077;-70
2023/01/14 09:32:49;;;;;;;0.20;0.20;;;6.80;92.00;;;;;;5009643;28;20136;-70
2023/01/14 09:35:15;;;;;;;0.00;0.00;;;6.70;92.20;;;;;;4992972;28;20469;-71
2023/01/14 09:37:40;;;;;;;0.00;0.00;;;6.70;92.30;;;;;;5008508;28;20133;-71
2023/01/14 09:40:06;;;;;;;0.00;0.00;;;6.70;92.40;;;;;;5008786;28;20037;-70
2023/01/14 09:42:36;;;;;;;0.30;0.30;;;6.70;92.50;;;;;;4993993;28;20454;-70
2023/01/14 09:45:32;;;;;;;0.00;0.00;;;6.70;92.70;;;;;;5002887;28;20042;-70
2023/01/14 09:48:13;;;;;;;0.00;0.00;;;6.60;93.00;;;;;;5007896;28;20038;-70
2023/01/14 09:51:14;;;;;;;24.00;2.08;;;6.70;93.10;;;;;;4982535;28;20046;-70
2023/01/14 09:54:05;;;;;;;0.00;0.00;;;6.70;93.10;;;;;;4996196;28;20479;-70
2023/01/14 09:56:30;;;;;;;0.00;0.00;;;6.70;93.10;;;;;;5008486;28;20034;-70
2023/01/14 09:59:07;;;;;;;0.00;0.00;;;6.70;93.10;;;;;;5012892;28;20130;-70
2023/01/14 10:01:52;;;;;;;0.00;0.00;;;6.80;93.10;;;;;;5008819;28;20128;-71
2023/01/14 10:04:45;;;;;;;0.00;0.00;;;6.70;93.10;;;;;;5010973;28;20041;-70
2023/01/14 10:07:13;;;;;;;0.00;0.00;;;6.80;93.40;;;;;;5011754;28;20048;-71
2023/01/14 10:09:57;;;;;;;0.00;0.00;;;6.80;93.40;;;;;;5005988;28;20038;-71
2023/01/14 10:12:29;;;;;;;0.00;0.00;;;6.90;93.40;;;;;;5011148;28;20060;-71
2023/01/14 10:15:18;;;;;;;0.00;0.00;;;6.80;93.40;;;;;;4983043;28;20049;-72
2023/01/14 10:17:50;;;;;;;0.00;0.00;;;6.90;93.40;;;;;;5000553;28;20674;-72
2023/01/14 10:20:24;;;;;;;0.00;0.00;;;6.90;93.30;;;;;;5017275;28;20807;-71
2023/01/14 10:22:56;;;;;;;0.00;0.00;;;6.90;93.30;;;;;;4987730;28;20047;-71
2023/01/14 10:25:22;;;;;;;0.00;0.00;;;7.00;93.20;;;;;;5005755;28;20196;-72
2023/01/14 10:27:52;;;;;;;0.00;0.00;;;7.00;93.40;;;;;;5007445;28;20108;-72
2023/01/14 10:30:28;;;;;;;0.00;0.00;;;7.00;93.30;;;;;;4997196;28;20069;-71
2023/01/14 10:32:55;;;;;;;0.00;0.00;;;7.10;93.50;;;;;;4996040;28;20125;-72
2023/01/14 10:35:29;;;;;;;0.10;0.10;;;7.10;93.70;;;;;;5009019;28;20768;-72
2023/01/14 10:37:55;;;;;;;0.00;0.00;;;7.10;93.80;;;;;;5006449;28;20058;-72
2023/01/14 10:40:23;;;;;;;0.15;0.15;;;7.10;93.80;;;;;;5006355;28;20403;-71
2023/01/14 10:42:50;;;;;;;0.00;0.00;;;7.20;93.90;;;;;;5005282;28;20052;-70
2023/01/14 10:45:16;;;;;;;0.05;0.05;;;7.30;93.90;;;;;;5006002;28;20125;-70
2023/01/14 10:47:44;;;;;;;0.22;0.22;;;7.30;93.90;;;;;;5008593;28;20152;-69
2023/01/14 10:50:12;;;;;;;0.00;0.00;;;7.30;93.90;;;;;;5010189;28;20042;-69
2023/01/14 10:52:38;;;;;;;0.00;0.00;;;7.30;93.90;;;;;;5012035;28;20418;-70
2023/01/14 10:55:12;;;;;;;0.10;0.10;;;7.30;93.90;;;;;;5012053;28;20050;-70
2023/01/14 10:58:15;;;;;;;0.00;0.00;;;7.30;94.00;;;;;;5012336;28;20053;-70
2023/01/14 11:00:44;;;;;;;0.00;0.00;;;7.30;94.10;;;;;;4994793;28;20049;-70
2023/01/14 11:03:23;;;;;;;0.00;0.00;;;7.30;94.10;;;;;;5015788;28;20060;-71
2023/01/14 11:05:55;;;;;;;0.00;0.00;;;7.30;94.20;;;;;;5032325;28;20512;-71
2023/01/14 11:08:48;;;;;;;0.00;0.00;;;7.30;94.20;;;;;;5007812;28;20124;-71
2023/01/14 11:11:22;;;;;;;0.00;0.00;;;7.30;94.30;;;;;;5013821;28;20141;-71
2023/01/14 11:13:50;;;;;;;1.20;0.68;;;7.30;94.40;;;;;;4986031;28;20042;-71
2023/01/14 11:16:25;;;;;;;4.30;1.17;;;7.30;94.40;;;;;;5011656;28;20502;-71
2023/01/14 11:18:56;;;;;;;0.47;0.47;;;7.30;94.40;;;;;;4989782;28;20041;-71
2023/01/14 11:21:24;;;;;;;0.00;0.00;;;7.40;94.40;;;;;;5010784;28;21114;-70
2023/01/14 11:24:06;;;;;;;0.00;0.00;;;7.40;94.30;;;;;;5006256;28;20042;-70
2023/01/14 11:26:39;;;;;;;0.00;0.00;;;7.40;94.30;;;;;;5001074;28;20046;-69
2023/01/14 11:29:25;;;;;;;0.00;0.00;;;7.40;94.40;;;;;;5005528;28;20046;-69
2023/01/14 11:31:54;;;;;;;0.10;0.10;;;7.50;94.30;;;;;;5018486;28;20785;-70
2023/01/14 11:34:36;;;;;;;0.00;0.00;;;7.50;94.20;;;;;;5011818;28;20050;-70
2023/01/14 11:37:05;;;;;;;0.00;0.00;;;7.60;94.30;;;;;;5010246;28;20173;-69
2023/01/14 11:39:33;;;;;;;0.00;0.00;;;7.60;94.30;;;;;;5011387;28;20045;-70
2023/01/14 11:42:02;;;;;;;0.00;0.00;;;7.60;94.30;;;;;;5010522;28;20580;-70
2023/01/14 11:44:28;;;;;;;1.20;0.80;;;7.60;94.30;;;;;;5011067;28;20057;-69
2023/01/14 11:47:17;;;;;;;0.00;0.00;;;7.60;94.30;;;;;;5011846;28;20038;-70
2023/01/14 11:49:42;;;;;;;0.00;0.00;;;7.60;94.20;;;;;;5009352;28;20125;-68
2023/01/14 11:52:19;;;;;;;0.00;0.00;;;7.60;94.30;;;;;;5016585;28;20120;-69
2023/01/14 11:54:47;;;;;;;0.00;0.00;;;7.70;94.30;;;;;;5025771;28;20054;-75
2023/01/14 11:57:17;;;;;;;0.00;0.00;;;7.70;94.30;;;;;;5020794;28;20042;-69
2023/01/14 11:59:44;;;;;;;0.00;0.00;;;7.70;94.50;;;;;;5010271;28;20053;-69
2023/01/14 12:02:16;;;;;;;9.38;2.40;;;7.70;94.50;;;;;;5015515;28;20106;-66
2023/01/14 12:04:48;;;;;;;0.20;0.20;;;7.70;94.60;;;;;;5015173;28;20053;-68
2023/01/14 12:07:34;;;;;;;;;;;7.80;94.80;;;;;;5011289;28;20038;-68
2023/01/14 12:10:32;;;;;;;0.00;0.00;;;7.90;94.50;;;;;;5009709;28;19928;-69
2023/01/14 12:19:12;;;;;;;0.00;0.00;;;8.00;94.70;;;;;;5011110;28;20046;-68
2023/01/14 12:21:51;;;;;;;2.85;1.15;;;8.00;94.60;;;;;;5010804;28;20050;-68
2023/01/14 12:25:01;;;;;;;0.00;0.00;;;8.10;94.60;;;;;;5011129;28;20046;-68
2023/01/14 12:27:56;;;;;;;0.00;0.00;;;8.10;94.70;;;;;;4992952;28;20469;-71
2023/01/14 12:30:25;;;;;;;0.00;0.00;;;8.10;94.70;;;;;;5003551;28;20046;-69
2023/01/14 12:32:53;;;;;;;0.00;0.00;;;8.20;94.70;;;;;;5010474;28;20189;-69
2023/01/14 12:35:21;;;;;;;0.00;0.00;;;8.20;94.90;;;;;;4989591;28;20054;-69
2023/01/14 12:37:54;;;;;;;0.00;0.00;;;8.30;95.00;;;;;;4985252;28;20138;-71
2023/01/14 12:46:19;;;;;;;0.00;0.00;;;8.40;94.80;;;;;;5003172;28;20058;-70
2023/01/14 12:48:44;;;;;;;0.10;0.10;;;8.50;94.90;;;;;;5006416;28;20053;-71
2023/01/14 12:51:26;;;;;;;0.00;0.00;;;8.50;94.90;;;;;;4992917;28;20160;-71
2023/01/14 12:53:56;;;;;;;0.00;0.00;;;8.60;95.00;;;;;;5008105;28;20050;-71
2023/01/14 12:56:23;;;;;;;0.13;0.13;;;8.60;94.90;;;;;;5002801;28;20041;-72
2023/01/14 12:59:08;;;;;;;0.00;0.00;;;8.70;94.90;;;;;;5009289;28;20138;-71
2023/01/14 13:01:51;;;;;;;0.00;0.00;;;8.70;94.80;;;;;;4991769;28;20060;-71
2023/01/14 13:04:20;;;;;;;0.00;0.00;;;8.80;95.00;;;;;;4988753;28;20066;-73
2023/01/14 13:06:52;;;;;;;0.00;0.00;;;8.90;95.00;;;;;;5007117;28;20112;-72
2023/01/14 13:09:23;;;;;;;;;;;8.90;95.00;;;;;;4979204;28;20046;-69
2023/01/14 13:11:51;;;;;;;0.00;0.00;;;9.10;95.10;;;;;;5008676;28;19935;-68
2023/01/14 13:14:37;;;;;;;0.00;0.00;;;9.10;95.00;;;;;;5008977;28;20041;-68
2023/01/14 13:17:16;;;;;;;0.00;0.00;;;9.20;94.90;;;;;;5008373;28;20057;-69
2023/01/14 13:19:53;;;;;;;0.00;0.00;;;9.20;95.00;;;;;;5009385;28;20053;-68
2023/01/14 13:22:47;;;;;;;0.00;0.00;;;9.20;94.90;;;;;;5016022;28;20065;-69
2023/01/14 13:25:37;;;;;;;0.10;0.10;;;9.30;95.00;;;;;;5009316;28;20442;-68
2023/01/14 13:28:12;;;;;;;0.00;0.00;;;9.30;94.90;;;;;;5008270;28;20521;-68
2023/01/14 13:30:44;;;;;;;0.08;0.08;;;9.30;94.90;;;;;;4994143;28;20056;-69
2023/01/14 13:33:20;;;;;;;0.00;0.00;;;9.30;94.80;;;;;;4995718;28;20058;-70
2023/01/14 13:36:12;;;;;;;0.00;0.00;;;9.40;94.90;;;;;;5008834;28;20092;-69
2023/01/14 13:38:42;;;;;;;0.00;0.00;;;9.30;94.80;;;;;;4998709;28;20058;-72
2023/01/14 13:41:11;;;;;;;0.00;0.00;;;9.30;94.90;;;;;;5009855;28;20037;-68
2023/01/14 13:43:46;;;;;;;0.00;0.00;;;9.30;94.90;;;;;;5000909;28;20060;-67
2023/01/14 13:46:20;;;;;;;0.00;0.00;;;9.40;95.00;;;;;;4998323;28;20096;-68
2023/01/14 13:48:52;;;;;;;0.00;0.00;;;9.40;94.90;;;;;;5008361;28;20041;-68
2023/01/14 13:51:29;;;;;;;0.00;0.00;;;9.40;94.80;;;;;;4995771;28;20042;-68
2023/01/14 13:54:02;;;;;;;0.00;0.00;;;9.40;95.00;;;;;;4989963;28;20039;-68
2023/01/14 13:56:29;;;;;;;0.00;0.00;;;9.40;95.00;;;;;;4989531;28;20569;-68